Time;durP1;ratioP1;P1;durP2;ratioP2;P2;SDS_P1;SDS_P2;PMS_P1;PMS_P2;Temp;Humidity;BMP_temperature;BMP_pressure;BME280_temperature;BME280_humidity;BME280_pressure;Samples;Min_cycle;Max_cycle;Signal;HPM_P1;HPM_P2
2023/07/17 00:00:24;;;;;;;0.00;0.00;;;;;;;;;;1750402;28;20229;-77
2023/07/17 00:01:15;;;;;;;0.00;0.00;;;;;;;;;;1750145;28;20198;-76
2023/07/17 00:02:08;;;;;;;0.00;0.00;;;;;;;;;;1753597;28;20197;-77
2023/07/17 00:02:59;;;;;;;0.00;0.00;;;;;;;;;;1751678;28;20616;-77
2023/07/17 00:03:50;;;;;;;0.00;0.00;;;;;;;;;;1751914;28;20207;-77
2023/07/17 00:04:42;;;;;;;0.00;0.00;;;;;;;;;;1749790;28;20302;-76
2023/07/17 00:05:34;;;;;;;0.00;0.00;;;;;;;;;;1752218;28;20244;-77
2023/07/17 00:06:25;;;;;;;0.00;0.00;;;;;;;;;;1752321;28;20217;-76
2023/07/17 00:07:17;;;;;;;0.00;0.00;;;;;;;;;;1753271;28;20475;-77
2023/07/17 00:08:10;;;;;;;0.00;0.00;;;;;;;;;;1751175;28;20331;-77
2023/07/17 00:09:02;;;;;;;0.00;0.00;;;;;;;;;;1749418;28;20232;-76
2023/07/17 00:09:53;;;;;;;0.00;0.00;;;;;;;;;;1752786;28;20551;-76
2023/07/17 00:10:44;;;;;;;0.00;0.00;;;;;;;;;;1752079;28;20272;-76
2023/07/17 00:11:36;;;;;;;0.00;0.00;;;;;;;;;;1752151;28;20636;-76
2023/07/17 00:12:27;;;;;;;0.00;0.00;;;;;;;;;;1753601;28;20300;-76
2023/07/17 00:13:19;;;;;;;0.00;0.00;;;;;;;;;;1751536;28;20254;-76
2023/07/17 00:14:10;;;;;;;0.00;0.00;;;;;;;;;;1753093;28;20383;-76
2023/07/17 00:15:05;;;;;;;0.00;0.00;;;;;;;;;;1752864;28;20280;-76
2023/07/17 00:15:57;;;;;;;0.00;0.00;;;;;;;;;;1750446;28;20328;-76
2023/07/17 00:16:48;;;;;;;0.00;0.00;;;;;;;;;;1752484;28;20342;-76
2023/07/17 00:17:41;;;;;;;0.00;0.00;;;;;;;;;;1752251;28;20251;-76
2023/07/17 00:18:34;;;;;;;0.00;0.00;;;;;;;;;;1753431;28;20240;-76
2023/07/17 00:19:25;;;;;;;0.00;0.00;;;;;;;;;;1752328;28;20201;-76
2023/07/17 00:20:17;;;;;;;0.00;0.00;;;;;;;;;;1751438;28;20197;-77
2023/07/17 00:21:09;;;;;;;0.00;0.00;;;;;;;;;;1752042;28;20240;-77
2023/07/17 00:22:00;;;;;;;0.00;0.00;;;;;;;;;;1753304;28;20194;-77
2023/07/17 00:22:52;;;;;;;0.00;0.00;;;;;;;;;;1752190;28;20572;-76
2023/07/17 00:23:43;;;;;;;0.00;0.00;;;;;;;;;;1753358;28;20296;-77
2023/07/17 00:24:34;;;;;;;0.00;0.00;;;;;;;;;;1752241;28;20294;-76
2023/07/17 00:25:26;;;;;;;0.00;0.00;;;;;;;;;;1750260;28;20298;-77
2023/07/17 00:26:18;;;;;;;0.00;0.00;;;;;;;;;;1745684;28;20293;-76
2023/07/17 00:27:09;;;;;;;0.00;0.00;;;;;;;;;;1746426;28;20293;-76
2023/07/17 00:28:01;;;;;;;0.00;0.00;;;;;;;;;;1745676;28;20581;-76
2023/07/17 00:29:13;;;;;;;0.00;0.00;;;;;;;;;;1746426;28;20202;-77
2023/07/17 00:30:07;;;;;;;0.00;0.00;;;;;;;;;;1746378;28;20608;-76
2023/07/17 00:30:59;;;;;;;0.00;0.00;;;;;;;;;;1744157;28;20313;-76
2023/07/17 00:31:50;;;;;;;0.00;0.00;;;;;;;;;;1746273;28;20585;-76
2023/07/17 00:32:42;;;;;;;0.00;0.00;;;;;;;;;;1745795;28;20565;-76
2023/07/17 00:33:33;;;;;;;0.00;0.00;;;;;;;;;;1746456;28;20326;-76
2023/07/17 00:34:24;;;;;;;0.00;0.00;;;;;;;;;;1745716;28;20205;-76
2023/07/17 00:35:16;;;;;;;0.00;0.00;;;;;;;;;;1745506;28;20417;-77
2023/07/17 00:36:07;;;;;;;0.00;0.00;;;;;;;;;;1745219;28;20548;-76
2023/07/17 00:36:58;;;;;;;0.00;0.00;;;;;;;;;;1746050;28;20639;-75
2023/07/17 00:37:50;;;;;;;0.00;0.00;;;;;;;;;;1745918;28;20473;-75
2023/07/17 00:38:41;;;;;;;0.00;0.00;;;;;;;;;;1746022;28;20297;-76
2023/07/17 00:39:33;;;;;;;0.00;0.00;;;;;;;;;;1745852;28;20195;-76
2023/07/17 00:40:25;;;;;;;0.00;0.00;;;;;;;;;;1744742;28;20212;-75
2023/07/17 00:41:16;;;;;;;0.00;0.00;;;;;;;;;;1745970;28;20202;-75
2023/07/17 00:42:07;;;;;;;0.00;0.00;;;;;;;;;;1746300;28;20769;-75
2023/07/17 00:42:59;;;;;;;0.00;0.00;;;;;;;;;;1745684;28;20267;-75
2023/07/17 00:43:51;;;;;;;0.00;0.00;;;;;;;;;;1746370;28;20293;-75
2023/07/17 00:44:42;;;;;;;0.00;0.00;;;;;;;;;;1745761;28;20259;-75
2023/07/17 00:45:35;;;;;;;0.00;0.00;;;;;;;;;;1745165;28;20600;-76
2023/07/17 00:46:26;;;;;;;0.00;0.00;;;;;;;;;;1746011;28;20347;-76
2023/07/17 00:47:18;;;;;;;0.00;0.00;;;;;;;;;;1746196;28;20792;-75
2023/07/17 00:48:10;;;;;;;0.00;0.00;;;;;;;;;;1746090;28;20293;-75
2023/07/17 00:49:01;;;;;;;0.00;0.00;;;;;;;;;;1746114;28;20256;-76
2023/07/17 00:49:53;;;;;;;0.00;0.00;;;;;;;;;;1746016;28;20583;-75
2023/07/17 00:50:44;;;;;;;0.00;0.00;;;;;;;;;;1744836;28;20333;-75
2023/07/17 00:51:37;;;;;;;0.00;0.00;;;;;;;;;;1745797;28;20198;-75
2023/07/17 00:52:29;;;;;;;0.00;0.00;;;;;;;;;;1746449;28;20738;-75
2023/07/17 00:53:20;;;;;;;0.00;0.00;;;;;;;;;;1745622;28;20285;-74
2023/07/17 00:54:14;;;;;;;0.00;0.00;;;;;;;;;;1746164;28;20589;-74
2023/07/17 00:55:06;;;;;;;0.00;0.00;;;;;;;;;;1746031;28;20593;-74
2023/07/17 00:55:57;;;;;;;0.00;0.00;;;;;;;;;;1749693;28;20248;-73
2023/07/17 00:56:49;;;;;;;0.00;0.00;;;;;;;;;;1752086;28;20563;-73
2023/07/17 00:57:40;;;;;;;0.00;0.00;;;;;;;;;;1752165;28;20374;-73
2023/07/17 00:58:32;;;;;;;0.00;0.00;;;;;;;;;;1753183;28;20271;-74
2023/07/17 00:59:24;;;;;;;0.00;0.00;;;;;;;;;;1750594;28;20333;-73
2023/07/17 01:00:17;;;;;;;0.00;0.00;;;;;;;;;;1750589;28;20270;-75
2023/07/17 01:01:10;;;;;;;0.00;0.00;;;;;;;;;;1749527;28;20198;-74
2023/07/17 01:02:01;;;;;;;0.00;0.00;;;;;;;;;;1753006;28;20216;-74
2023/07/17 01:02:53;;;;;;;0.00;0.00;;;;;;;;;;1752207;28;20533;-74
2023/07/17 01:03:44;;;;;;;0.00;0.00;;;;;;;;;;1749007;28;20695;-74
2023/07/17 01:04:36;;;;;;;0.00;0.00;;;;;;;;;;1752188;28;20205;-74
2023/07/17 01:05:28;;;;;;;0.00;0.00;;;;;;;;;;1751386;28;20198;-75
2023/07/17 01:06:19;;;;;;;0.00;0.00;;;;;;;;;;1749680;28;20696;-74
2023/07/17 01:07:11;;;;;;;0.00;0.00;;;;;;;;;;1752056;28;20198;-74
2023/07/17 01:08:02;;;;;;;0.00;0.00;;;;;;;;;;1751786;28;20217;-74
2023/07/17 01:08:53;;;;;;;0.00;0.00;;;;;;;;;;1753377;28;20198;-74
2023/07/17 01:09:45;;;;;;;0.00;0.00;;;;;;;;;;1751034;28;20637;-74
2023/07/17 01:10:36;;;;;;;0.00;0.00;;;;;;;;;;1748749;28;20895;-73
2023/07/17 01:11:27;;;;;;;0.00;0.00;;;;;;;;;;1746203;28;20726;-73
2023/07/17 01:12:19;;;;;;;0.00;0.00;;;;;;;;;;1746323;28;20209;-73
2023/07/17 01:13:11;;;;;;;0.00;0.00;;;;;;;;;;1746162;28;20782;-73
2023/07/17 01:14:02;;;;;;;0.00;0.00;;;;;;;;;;1746344;28;20237;-73
2023/07/17 01:14:54;;;;;;;0.00;0.00;;;;;;;;;;1746103;28;20214;-74
2023/07/17 01:15:45;;;;;;;0.00;0.00;;;;;;;;;;1750082;28;20907;-76
2023/07/17 01:16:37;;;;;;;0.00;0.00;;;;;;;;;;1752859;28;20614;-76
2023/07/17 01:17:29;;;;;;;0.00;0.00;;;;;;;;;;1753539;28;20342;-76
2023/07/17 01:18:20;;;;;;;0.00;0.00;;;;;;;;;;1751629;28;20640;-76
2023/07/17 01:19:11;;;;;;;0.00;0.00;;;;;;;;;;1753259;28;20281;-76
2023/07/17 01:20:09;;;;;;;0.00;0.00;;;;;;;;;;1752858;28;20627;-76
2023/07/17 01:21:00;;;;;;;0.00;0.00;;;;;;;;;;1744474;28;20233;-75
2023/07/17 01:21:59;;;;;;;0.00;0.00;;;;;;;;;;1746026;28;20275;-75
2023/07/17 01:22:54;;;;;;;0.00;0.00;;;;;;;;;;1745438;28;20210;-75
2023/07/17 01:23:45;;;;;;;0.00;0.00;;;;;;;;;;1746351;28;20649;-75
2023/07/17 01:24:37;;;;;;;0.00;0.00;;;;;;;;;;1745745;28;20717;-75
2023/07/17 01:25:29;;;;;;;0.00;0.00;;;;;;;;;;1744487;28;20240;-76
2023/07/17 01:26:20;;;;;;;0.00;0.00;;;;;;;;;;1745449;28;20198;-75
2023/07/17 01:27:12;;;;;;;0.00;0.00;;;;;;;;;;1746183;28;20277;-76
2023/07/17 01:28:03;;;;;;;0.00;0.00;;;;;;;;;;1745632;28;20201;-76
2023/07/17 01:28:54;;;;;;;0.00;0.00;;;;;;;;;;1745808;28;20648;-76
2023/07/17 01:29:46;;;;;;;0.00;0.00;;;;;;;;;;1745538;28;20198;-76
2023/07/17 01:30:37;;;;;;;0.00;0.00;;;;;;;;;;1747898;28;20333;-75
2023/07/17 01:31:28;;;;;;;0.00;0.00;;;;;;;;;;1752056;28;20196;-76
2023/07/17 01:32:20;;;;;;;0.00;0.00;;;;;;;;;;1752645;28;20204;-76
2023/07/17 01:33:11;;;;;;;0.00;0.00;;;;;;;;;;1751986;28;20201;-75
2023/07/17 01:34:03;;;;;;;0.00;0.00;;;;;;;;;;1753105;28;20205;-75
2023/07/17 01:34:55;;;;;;;0.00;0.00;;;;;;;;;;1751591;28;20628;-76
2023/07/17 01:35:47;;;;;;;0.00;0.00;;;;;;;;;;1751555;28;20267;-75
2023/07/17 01:36:39;;;;;;;0.00;0.00;;;;;;;;;;1751995;28;20690;-75
2023/07/17 01:37:30;;;;;;;0.00;0.00;;;;;;;;;;1753046;28;20206;-75
2023/07/17 01:38:22;;;;;;;0.00;0.00;;;;;;;;;;1751965;28;20208;-75
2023/07/17 01:39:14;;;;;;;0.00;0.00;;;;;;;;;;1751995;28;20301;-75
2023/07/17 01:40:07;;;;;;;0.00;0.00;;;;;;;;;;1752877;28;20309;-75
2023/07/17 01:40:58;;;;;;;0.00;0.00;;;;;;;;;;1749800;28;20548;-76
2023/07/17 01:41:50;;;;;;;0.00;0.00;;;;;;;;;;1752754;28;20284;-76
2023/07/17 01:42:41;;;;;;;0.00;0.00;;;;;;;;;;1752143;28;20235;-76
2023/07/17 01:43:32;;;;;;;0.00;0.00;;;;;;;;;;1752706;28;20284;-76
2023/07/17 01:44:27;;;;;;;0.00;0.00;;;;;;;;;;1751947;28;20275;-76
2023/07/17 01:45:18;;;;;;;0.00;0.00;;;;;;;;;;1751540;28;20610;-76
2023/07/17 01:46:10;;;;;;;0.00;0.00;;;;;;;;;;1751819;28;20210;-76
2023/07/17 01:47:02;;;;;;;0.00;0.00;;;;;;;;;;1752804;28;20212;-77
2023/07/17 01:47:53;;;;;;;0.00;0.00;;;;;;;;;;1752306;28;20328;-77
2023/07/17 01:48:44;;;;;;;0.00;0.00;;;;;;;;;;1753130;28;20196;-76
2023/07/17 01:49:36;;;;;;;0.00;0.00;;;;;;;;;;1751508;28;20251;-76
2023/07/17 01:50:27;;;;;;;0.00;0.00;;;;;;;;;;1749380;28;20567;-76
2023/07/17 01:51:19;;;;;;;0.00;0.00;;;;;;;;;;1745301;28;20191;-76
2023/07/17 01:52:10;;;;;;;0.00;0.00;;;;;;;;;;1749266;28;20285;-76
2023/07/17 01:53:01;;;;;;;0.00;0.00;;;;;;;;;;1747809;28;20263;-76
2023/07/17 01:53:54;;;;;;;0.00;0.00;;;;;;;;;;1745704;28;20199;-76
2023/07/17 01:54:45;;;;;;;0.00;0.00;;;;;;;;;;1745619;28;20302;-76
2023/07/17 01:55:37;;;;;;;0.00;0.00;;;;;;;;;;1747481;28;20268;-76
2023/07/17 01:56:29;;;;;;;0.00;0.00;;;;;;;;;;1750868;28;20260;-76
2023/07/17 01:57:20;;;;;;;0.00;0.00;;;;;;;;;;1750469;28;20262;-76
2023/07/17 01:58:11;;;;;;;0.00;0.00;;;;;;;;;;1751267;28;20288;-75
2023/07/17 01:59:03;;;;;;;0.00;0.00;;;;;;;;;;1752593;28;20688;-76
2023/07/17 01:59:54;;;;;;;0.00;0.00;;;;;;;;;;1751402;28;20293;-77
2023/07/17 02:00:45;;;;;;;0.00;0.00;;;;;;;;;;1747112;28;20241;-77
2023/07/17 02:01:37;;;;;;;0.00;0.00;;;;;;;;;;1752541;28;20193;-78
2023/07/17 02:02:28;;;;;;;0.00;0.00;;;;;;;;;;1753076;28;20202;-78
2023/07/17 02:03:20;;;;;;;0.00;0.00;;;;;;;;;;1752328;28;20193;-77
2023/07/17 02:04:11;;;;;;;0.00;0.00;;;;;;;;;;1752846;28;20293;-77
2023/07/17 02:05:06;;;;;;;0.00;0.00;;;;;;;;;;1752922;28;20615;-77
2023/07/17 02:05:57;;;;;;;0.00;0.00;;;;;;;;;;1749770;28;20257;-77
2023/07/17 02:06:49;;;;;;;0.00;0.00;;;;;;;;;;1752028;28;20527;-77
2023/07/17 02:07:40;;;;;;;0.00;0.00;;;;;;;;;;1752136;28;20225;-76
2023/07/17 02:08:31;;;;;;;0.00;0.00;;;;;;;;;;1752639;28;20205;-75
2023/07/17 02:09:25;;;;;;;0.00;0.00;;;;;;;;;;1752246;28;20540;-75
2023/07/17 02:10:16;;;;;;;0.00;0.00;;;;;;;;;;1750076;28;20297;-76
2023/07/17 02:11:07;;;;;;;0.00;0.00;;;;;;;;;;1745494;28;20509;-76
2023/07/17 02:11:59;;;;;;;0.00;0.00;;;;;;;;;;1745918;28;20202;-76
2023/07/17 02:12:50;;;;;;;0.00;0.00;;;;;;;;;;1745249;28;21238;-76
2023/07/17 02:13:42;;;;;;;0.00;0.00;;;;;;;;;;1746074;28;20198;-76
2023/07/17 02:14:34;;;;;;;0.00;0.00;;;;;;;;;;1745140;28;20402;-76
2023/07/17 02:15:25;;;;;;;0.00;0.00;;;;;;;;;;1745956;28;20202;-76
2023/07/17 02:16:17;;;;;;;0.00;0.00;;;;;;;;;;1751880;28;20202;-76
2023/07/17 02:17:08;;;;;;;0.00;0.00;;;;;;;;;;1752542;28;20592;-76
2023/07/17 02:17:59;;;;;;;0.00;0.00;;;;;;;;;;1751599;28;20215;-76
2023/07/17 02:18:52;;;;;;;0.00;0.00;;;;;;;;;;1752481;28;20558;-76
2023/07/17 02:19:43;;;;;;;0.00;0.00;;;;;;;;;;1752052;28;20516;-76
2023/07/17 02:20:35;;;;;;;0.00;0.00;;;;;;;;;;1751100;28;20348;-76
2023/07/17 02:21:26;;;;;;;0.00;0.00;;;;;;;;;;1751482;28;20394;-76
2023/07/17 02:22:18;;;;;;;0.00;0.00;;;;;;;;;;1752708;28;20289;-76
2023/07/17 02:23:09;;;;;;;0.00;0.00;;;;;;;;;;1751236;28;20300;-76
2023/07/17 02:24:01;;;;;;;0.00;0.00;;;;;;;;;;1752643;28;20201;-76
2023/07/17 02:24:54;;;;;;;0.00;0.00;;;;;;;;;;1751443;28;20193;-76
2023/07/17 02:25:45;;;;;;;0.00;0.00;;;;;;;;;;1750862;28;20264;-75
2023/07/17 02:26:36;;;;;;;0.00;0.00;;;;;;;;;;1751629;28;20259;-75
2023/07/17 02:27:28;;;;;;;0.00;0.00;;;;;;;;;;1752684;28;20584;-75
2023/07/17 02:28:19;;;;;;;0.00;0.00;;;;;;;;;;1751582;28;20293;-75
2023/07/17 02:29:11;;;;;;;0.00;0.00;;;;;;;;;;1752237;28;20205;-76
2023/07/17 02:30:06;;;;;;;0.00;0.00;;;;;;;;;;1751051;28;20607;-76
2023/07/17 02:30:58;;;;;;;0.00;0.00;;;;;;;;;;1750262;28;20794;-76
2023/07/17 02:31:49;;;;;;;0.00;0.00;;;;;;;;;;1752575;28;20530;-76
2023/07/17 02:32:40;;;;;;;0.00;0.00;;;;;;;;;;1752264;28;20194;-76
2023/07/17 02:33:32;;;;;;;0.00;0.00;;;;;;;;;;1751813;28;20287;-76
2023/07/17 02:34:23;;;;;;;0.00;0.00;;;;;;;;;;1751690;28;20240;-76
2023/07/17 02:35:15;;;;;;;0.00;0.00;;;;;;;;;;1750850;28;20614;-76
2023/07/17 02:36:06;;;;;;;0.00;0.00;;;;;;;;;;1751406;28;20332;-76
2023/07/17 02:36:58;;;;;;;0.00;0.00;;;;;;;;;;1752703;28;20205;-76
2023/07/17 02:37:49;;;;;;;0.00;0.00;;;;;;;;;;1751279;28;20539;-76
2023/07/17 02:38:40;;;;;;;0.00;0.00;;;;;;;;;;1749987;28;20262;-76
2023/07/17 02:39:32;;;;;;;0.00;0.00;;;;;;;;;;1751215;28;20809;-76
2023/07/17 02:40:25;;;;;;;0.00;0.00;;;;;;;;;;1750564;28;20232;-76
2023/07/17 02:41:17;;;;;;;0.00;0.00;;;;;;;;;;1751472;28;20510;-76
2023/07/17 02:42:08;;;;;;;0.00;0.00;;;;;;;;;;1752652;28;20317;-76
2023/07/17 02:42:59;;;;;;;0.00;0.00;;;;;;;;;;1751781;28;20210;-77
2023/07/17 02:43:51;;;;;;;0.00;0.00;;;;;;;;;;1752422;28;20201;-75
2023/07/17 02:44:43;;;;;;;0.00;0.00;;;;;;;;;;1751416;28;20677;-75
2023/07/17 02:45:34;;;;;;;0.00;0.00;;;;;;;;;;1750663;28;20263;-75
2023/07/17 02:46:26;;;;;;;0.00;0.00;;;;;;;;;;1751919;28;20229;-78
2023/07/17 02:47:17;;;;;;;0.00;0.00;;;;;;;;;;1752985;28;20237;-78
2023/07/17 02:48:09;;;;;;;0.00;0.00;;;;;;;;;;1752418;28;20669;-77
2023/07/17 02:49:00;;;;;;;0.00;0.00;;;;;;;;;;1752708;28;20489;-77
2023/07/17 02:49:51;;;;;;;0.00;0.00;;;;;;;;;;1751916;28;20201;-77
2023/07/17 02:50:44;;;;;;;0.00;0.00;;;;;;;;;;1751515;28;20602;-77
2023/07/17 02:51:35;;;;;;;0.00;0.00;;;;;;;;;;1752346;28;20201;-77
2023/07/17 02:52:28;;;;;;;0.00;0.00;;;;;;;;;;1753045;28;20619;-77
2023/07/17 02:53:20;;;;;;;0.00;0.00;;;;;;;;;;1752523;28;20359;-77
2023/07/17 02:54:12;;;;;;;0.00;0.00;;;;;;;;;;1752320;28;20224;-77
2023/07/17 02:55:04;;;;;;;0.00;0.00;;;;;;;;;;1752393;28;20255;-77
2023/07/17 02:55:57;;;;;;;0.00;0.00;;;;;;;;;;1750392;28;20711;-78
2023/07/17 02:56:48;;;;;;;0.00;0.00;;;;;;;;;;1752547;28;20288;-77
2023/07/17 02:57:39;;;;;;;0.00;0.00;;;;;;;;;;1752170;28;20225;-77
2023/07/17 02:58:31;;;;;;;0.00;0.00;;;;;;;;;;1752101;28;20198;-77
2023/07/17 02:59:22;;;;;;;0.00;0.00;;;;;;;;;;1751520;28;20292;-77
2023/07/17 03:00:15;;;;;;;0.00;0.00;;;;;;;;;;1750574;28;20870;-78
2023/07/17 03:01:06;;;;;;;0.00;0.00;;;;;;;;;;1740476;28;20374;-78
2023/07/17 03:01:58;;;;;;;0.00;0.00;;;;;;;;;;1745580;28;20604;-78
2023/07/17 03:02:49;;;;;;;0.00;0.00;;;;;;;;;;1745316;28;20209;-77
2023/07/17 03:03:41;;;;;;;0.00;0.00;;;;;;;;;;1745432;28;20198;-77
2023/07/17 03:04:33;;;;;;;0.00;0.00;;;;;;;;;;1744688;28;20568;-77
2023/07/17 03:05:24;;;;;;;0.00;0.00;;;;;;;;;;1743935;28;20383;-78
2023/07/17 03:06:16;;;;;;;0.00;0.00;;;;;;;;;;1744908;28;20201;-77
2023/07/17 03:07:08;;;;;;;0.00;0.00;;;;;;;;;;1745713;28;20248;-76
2023/07/17 03:07:59;;;;;;;0.00;0.00;;;;;;;;;;1745057;28;20651;-76
2023/07/17 03:08:51;;;;;;;0.00;0.00;;;;;;;;;;1745623;28;20202;-76
2023/07/17 03:09:42;;;;;;;0.00;0.00;;;;;;;;;;1744980;28;20637;-77
2023/07/17 03:10:34;;;;;;;0.00;0.00;;;;;;;;;;1747089;28;20221;-77
2023/07/17 03:11:27;;;;;;;0.00;0.00;;;;;;;;;;1751070;28;20288;-76
2023/07/17 03:12:18;;;;;;;0.00;0.00;;;;;;;;;;1752924;28;20500;-76
2023/07/17 03:13:10;;;;;;;0.00;0.00;;;;;;;;;;1751235;28;20201;-76
2023/07/17 03:14:01;;;;;;;0.00;0.00;;;;;;;;;;1752893;28;20237;-75
2023/07/17 03:14:52;;;;;;;0.00;0.00;;;;;;;;;;1751313;28;20721;-76
2023/07/17 03:15:44;;;;;;;0.00;0.00;;;;;;;;;;1744761;28;20226;-76
2023/07/17 03:16:35;;;;;;;0.00;0.00;;;;;;;;;;1750367;28;20285;-76
2023/07/17 03:17:27;;;;;;;0.00;0.00;;;;;;;;;;1752738;28;20672;-76
2023/07/17 03:18:18;;;;;;;0.00;0.00;;;;;;;;;;1751465;28;20725;-76
2023/07/17 03:19:09;;;;;;;0.00;0.00;;;;;;;;;;1752598;28;20451;-75
2023/07/17 03:20:06;;;;;;;0.00;0.00;;;;;;;;;;1752336;28;20209;-76
2023/07/17 03:20:57;;;;;;;0.00;0.00;;;;;;;;;;1750056;28;20315;-76
2023/07/17 03:21:49;;;;;;;0.00;0.00;;;;;;;;;;1752858;28;20198;-76
2023/07/17 03:22:40;;;;;;;0.00;0.00;;;;;;;;;;1752061;28;20304;-76
2023/07/17 03:23:31;;;;;;;0.00;0.00;;;;;;;;;;1751929;28;20202;-75
2023/07/17 03:24:23;;;;;;;0.00;0.00;;;;;;;;;;1751671;28;20197;-75
2023/07/17 03:25:14;;;;;;;0.00;0.00;;;;;;;;;;1751014;28;20305;-75
2023/07/17 03:26:06;;;;;;;0.00;0.00;;;;;;;;;;1751023;28;20235;-74
2023/07/17 03:26:58;;;;;;;0.00;0.00;;;;;;;;;;1752543;28;20213;-74
2023/07/17 03:27:50;;;;;;;0.00;0.00;;;;;;;;;;1751553;28;20701;-75
2023/07/17 03:28:42;;;;;;;0.00;0.00;;;;;;;;;;1752570;28;20662;-75
2023/07/17 03:29:33;;;;;;;0.00;0.00;;;;;;;;;;1750779;28;20659;-74
2023/07/17 03:30:25;;;;;;;0.00;0.00;;;;;;;;;;1750877;28;20198;-76
2023/07/17 03:31:16;;;;;;;0.00;0.00;;;;;;;;;;1751857;28;20351;-75
2023/07/17 03:32:09;;;;;;;0.00;0.00;;;;;;;;;;1752314;28;20240;-76
2023/07/17 03:33:00;;;;;;;0.00;0.00;;;;;;;;;;1751268;28;20206;-75
2023/07/17 03:33:51;;;;;;;0.00;0.00;;;;;;;;;;1752421;28;20236;-76
2023/07/17 03:34:43;;;;;;;0.00;0.00;;;;;;;;;;1751328;28;20229;-76
2023/07/17 03:35:34;;;;;;;0.00;0.00;;;;;;;;;;1750020;28;20325;-75
2023/07/17 03:36:26;;;;;;;0.00;0.00;;;;;;;;;;1751678;28;20549;-76
2023/07/17 03:37:17;;;;;;;0.00;0.00;;;;;;;;;;1752447;28;20202;-75
2023/07/17 03:38:09;;;;;;;0.00;0.00;;;;;;;;;;1751378;28;20233;-76
2023/07/17 03:39:00;;;;;;;0.00;0.00;;;;;;;;;;1752261;28;20255;-75
2023/07/17 03:39:52;;;;;;;0.00;0.00;;;;;;;;;;1751594;28;20536;-76
2023/07/17 03:40:44;;;;;;;0.00;0.00;;;;;;;;;;1746696;28;20245;-76
2023/07/17 03:41:35;;;;;;;0.00;0.00;;;;;;;;;;1745007;28;20244;-75
2023/07/17 03:42:28;;;;;;;0.00;0.00;;;;;;;;;;1745405;28;20632;-75
2023/07/17 03:43:19;;;;;;;0.00;0.00;;;;;;;;;;1744928;28;20702;-75
2023/07/17 03:44:12;;;;;;;0.00;0.00;;;;;;;;;;1745364;28;20203;-75
2023/07/17 03:45:04;;;;;;;0.00;0.00;;;;;;;;;;1745382;28;20706;-77
2023/07/17 03:45:55;;;;;;;0.00;0.00;;;;;;;;;;1748825;28;20261;-77
2023/07/17 03:46:47;;;;;;;0.00;0.00;;;;;;;;;;1745318;28;20226;-77
2023/07/17 03:47:39;;;;;;;0.00;0.00;;;;;;;;;;1745204;28;20663;-77
2023/07/17 03:48:30;;;;;;;0.00;0.00;;;;;;;;;;1748987;28;20289;-77
2023/07/17 03:49:22;;;;;;;0.00;0.00;;;;;;;;;;1748125;28;20222;-77
2023/07/17 03:50:13;;;;;;;0.00;0.00;;;;;;;;;;1744966;28;20308;-77
2023/07/17 03:51:04;;;;;;;0.00;0.00;;;;;;;;;;1750633;28;20643;-76
2023/07/17 03:51:57;;;;;;;0.00;0.00;;;;;;;;;;1752446;28;20201;-76
2023/07/17 03:52:49;;;;;;;0.00;0.00;;;;;;;;;;1751567;28;20197;-76
2023/07/17 03:53:41;;;;;;;0.00;0.00;;;;;;;;;;1752254;28;20259;-76
2023/07/17 03:54:32;;;;;;;0.00;0.00;;;;;;;;;;1751344;28;20205;-76
2023/07/17 03:55:24;;;;;;;0.00;0.00;;;;;;;;;;1750668;28;20201;-76
2023/07/17 03:56:15;;;;;;;0.00;0.00;;;;;;;;;;1752491;28;20236;-76
2023/07/17 03:57:06;;;;;;;0.00;0.00;;;;;;;;;;1753741;28;20706;-76
2023/07/17 03:57:59;;;;;;;0.00;0.00;;;;;;;;;;1752828;28;20225;-76
2023/07/17 03:58:50;;;;;;;0.00;0.00;;;;;;;;;;1753487;28;20297;-77
2023/07/17 03:59:49;;;;;;;0.00;0.00;;;;;;;;;;1752356;28;20292;-76
2023/07/17 04:00:40;;;;;;;0.00;0.00;;;;;;;;;;1747811;28;20732;-77
2023/07/17 04:01:32;;;;;;;0.00;0.00;;;;;;;;;;1751852;28;20667;-77
2023/07/17 04:02:23;;;;;;;0.00;0.00;;;;;;;;;;1753767;28;20309;-76
2023/07/17 04:03:14;;;;;;;0.00;0.00;;;;;;;;;;1752992;28;20240;-75
2023/07/17 04:04:06;;;;;;;0.00;0.00;;;;;;;;;;1753680;28;20343;-76
2023/07/17 04:04:57;;;;;;;0.00;0.00;;;;;;;;;;1752768;28;20318;-77
2023/07/17 04:05:49;;;;;;;0.00;0.00;;;;;;;;;;1750870;28;20290;-76
2023/07/17 04:06:41;;;;;;;0.00;0.00;;;;;;;;;;1752475;28;20289;-76
2023/07/17 04:07:32;;;;;;;0.00;0.00;;;;;;;;;;1753456;28;20627;-76
2023/07/17 04:08:24;;;;;;;0.00;0.00;;;;;;;;;;1752516;28;20194;-76
2023/07/17 04:09:15;;;;;;;0.00;0.00;;;;;;;;;;1752709;28;20332;-77
2023/07/17 04:10:06;;;;;;;0.00;0.00;;;;;;;;;;1753506;28;20205;-77
2023/07/17 04:10:58;;;;;;;0.00;0.00;;;;;;;;;;1744396;28;20240;-76
2023/07/17 04:11:49;;;;;;;0.00;0.00;;;;;;;;;;1746640;28;20297;-76
2023/07/17 04:12:40;;;;;;;0.00;0.00;;;;;;;;;;1746302;28;20707;-76
2023/07/17 04:13:34;;;;;;;0.00;0.00;;;;;;;;;;1746447;28;20241;-75
2023/07/17 04:14:25;;;;;;;0.00;0.00;;;;;;;;;;1745953;28;20213;-76
2023/07/17 04:15:17;;;;;;;0.00;0.00;;;;;;;;;;1746011;28;20198;-76
2023/07/17 04:16:08;;;;;;;0.00;0.00;;;;;;;;;;1744667;28;20332;-76
2023/07/17 04:17:00;;;;;;;0.00;0.00;;;;;;;;;;1746548;28;20240;-76
2023/07/17 04:17:51;;;;;;;0.00;0.00;;;;;;;;;;1745648;28;20636;-75
2023/07/17 04:18:43;;;;;;;0.00;0.00;;;;;;;;;;1746321;28;20269;-77
2023/07/17 04:19:34;;;;;;;0.00;0.00;;;;;;;;;;1745698;28;20734;-77
2023/07/17 04:20:25;;;;;;;0.00;0.00;;;;;;;;;;1742837;28;20479;-75
2023/07/17 04:21:17;;;;;;;0.00;0.00;;;;;;;;;;1742403;28;20211;-77
2023/07/17 04:22:09;;;;;;;0.00;0.00;;;;;;;;;;1744531;28;20241;-76
2023/07/17 04:23:01;;;;;;;0.00;0.00;;;;;;;;;;1744392;28;20296;-76
2023/07/17 04:23:53;;;;;;;0.00;0.00;;;;;;;;;;1746595;28;20267;-77
2023/07/17 04:24:45;;;;;;;0.00;0.00;;;;;;;;;;1743840;28;20194;-77
2023/07/17 04:25:38;;;;;;;0.00;0.00;;;;;;;;;;1746562;28;20237;-77
2023/07/17 04:26:30;;;;;;;0.00;0.00;;;;;;;;;;1751483;28;20289;-77
2023/07/17 04:27:21;;;;;;;0.00;0.00;;;;;;;;;;1753310;28;20292;-77
2023/07/17 04:28:12;;;;;;;0.00;0.00;;;;;;;;;;1752830;28;20277;-77
2023/07/17 04:29:06;;;;;;;0.00;0.00;;;;;;;;;;1751723;28;20688;-77
2023/07/17 04:29:57;;;;;;;0.00;0.00;;;;;;;;;;1752120;28;20217;-77
2023/07/17 04:30:49;;;;;;;0.00;0.00;;;;;;;;;;1740329;28;20576;-77
2023/07/17 04:31:41;;;;;;;0.00;0.00;;;;;;;;;;1746042;28;20298;-77
2023/07/17 04:32:33;;;;;;;0.00;0.00;;;;;;;;;;1746207;28;20202;-77
2023/07/17 04:33:24;;;;;;;0.00;0.00;;;;;;;;;;1746050;28;20748;-77
2023/07/17 04:34:15;;;;;;;0.00;0.00;;;;;;;;;;1746112;28;20210;-77
2023/07/17 04:35:07;;;;;;;0.00;0.00;;;;;;;;;;1746614;28;20217;-77
2023/07/17 04:35:58;;;;;;;0.00;0.00;;;;;;;;;;1738434;28;20686;-76
2023/07/17 04:36:50;;;;;;;0.00;0.00;;;;;;;;;;1746525;28;20296;-77
2023/07/17 04:37:41;;;;;;;0.00;0.00;;;;;;;;;;1745970;28;20263;-77
2023/07/17 04:38:33;;;;;;;0.00;0.00;;;;;;;;;;1746109;28;20325;-77
2023/07/17 04:39:24;;;;;;;0.00;0.00;;;;;;;;;;1745816;28;20217;-77
2023/07/17 04:40:17;;;;;;;0.00;0.00;;;;;;;;;;1743145;28;20202;-76
2023/07/17 04:41:08;;;;;;;0.00;0.00;;;;;;;;;;1745864;28;20209;-76
2023/07/17 04:42:00;;;;;;;0.00;0.00;;;;;;;;;;1746492;28;20722;-76
2023/07/17 04:42:51;;;;;;;0.00;0.00;;;;;;;;;;1746077;28;20305;-76
2023/07/17 04:43:43;;;;;;;0.00;0.00;;;;;;;;;;1746471;28;20239;-76
2023/07/17 04:44:36;;;;;;;0.00;0.00;;;;;;;;;;1745734;28;20387;-76
2023/07/17 04:45:27;;;;;;;0.00;0.00;;;;;;;;;;1744696;28;20260;-77
2023/07/17 04:46:19;;;;;;;0.00;0.00;;;;;;;;;;1746030;28;20212;-76
2023/07/17 04:47:10;;;;;;;0.00;0.00;;;;;;;;;;1746105;28;20325;-76
2023/07/17 04:48:03;;;;;;;0.00;0.00;;;;;;;;;;1745941;28;20535;-76
2023/07/17 04:48:55;;;;;;;0.00;0.00;;;;;;;;;;1746438;28;20620;-76
2023/07/17 04:49:46;;;;;;;0.00;0.00;;;;;;;;;;1745830;28;20248;-76
2023/07/17 04:50:38;;;;;;;0.00;0.00;;;;;;;;;;1744712;28;20230;-77
2023/07/17 04:51:29;;;;;;;0.00;0.00;;;;;;;;;;1745759;28;20307;-77
2023/07/17 04:52:21;;;;;;;0.00;0.00;;;;;;;;;;1746322;28;20198;-77
2023/07/17 04:53:12;;;;;;;0.10;0.10;;;;;;;;;;1745744;28;20773;-76
2023/07/17 04:54:04;;;;;;;0.00;0.00;;;;;;;;;;1746485;28;20199;-77
2023/07/17 04:54:55;;;;;;;0.00;0.00;;;;;;;;;;1745767;28;20671;-77
2023/07/17 04:55:48;;;;;;;0.00;0.00;;;;;;;;;;1744848;28;20222;-77
2023/07/17 04:56:39;;;;;;;0.00;0.00;;;;;;;;;;1746012;28;20715;-76
2023/07/17 04:57:30;;;;;;;0.00;0.00;;;;;;;;;;1746305;28;20195;-77
2023/07/17 04:58:22;;;;;;;0.00;0.00;;;;;;;;;;1745806;28;20827;-76
2023/07/17 04:59:13;;;;;;;0.00;0.00;;;;;;;;;;1745853;28;20329;-75
2023/07/17 05:00:09;;;;;;;0.00;0.00;;;;;;;;;;1746323;28;20271;-76
2023/07/17 05:01:00;;;;;;;0.00;0.00;;;;;;;;;;1738021;28;20312;-75
2023/07/17 05:01:51;;;;;;;0.00;0.00;;;;;;;;;;1746334;28;20203;-76
2023/07/17 05:02:43;;;;;;;0.00;0.00;;;;;;;;;;1746099;28;20225;-76
2023/07/17 05:03:36;;;;;;;0.00;0.00;;;;;;;;;;1746185;28;20320;-76
2023/07/17 05:04:28;;;;;;;0.00;0.00;;;;;;;;;;1745867;28;20205;-76
2023/07/17 05:05:19;;;;;;;0.00;0.00;;;;;;;;;;1744755;28;20683;-76
2023/07/17 05:06:11;;;;;;;0.00;0.00;;;;;;;;;;1745979;28;20308;-75
2023/07/17 05:07:02;;;;;;;0.00;0.00;;;;;;;;;;1746132;28;20364;-76
2023/07/17 05:07:54;;;;;;;0.00;0.00;;;;;;;;;;1745385;28;20210;-76
2023/07/17 05:08:46;;;;;;;0.00;0.00;;;;;;;;;;1746337;28;20604;-76
2023/07/17 05:09:37;;;;;;;0.00;0.00;;;;;;;;;;1745741;28;20190;-75
2023/07/17 05:10:29;;;;;;;0.00;0.00;;;;;;;;;;1747581;28;20209;-76